createdAt,value
2019-06-10T00:04:53.569Z,83.67
2019-06-10T00:09:53.514Z,84.99
2019-06-10T00:14:53.478Z,86.65
2019-06-10T00:19:53.431Z,87.92
2019-06-10T00:24:53.363Z,87.81
2019-06-10T00:29:53.327Z,87.14
2019-06-10T00:34:53.239Z,85.72
2019-06-10T00:39:53.196Z,85.61
2019-06-10T00:44:53.166Z,85.31
2019-06-10T00:49:53.165Z,85.51
2019-06-10T00:54:53.030Z,85.92
2019-06-10T00:59:52.957Z,86.33
2019-06-10T01:04:52.962Z,86.02
2019-06-10T01:09:52.865Z,87.55
2019-06-10T01:14:52.875Z,87.85
2019-06-10T01:19:52.772Z,87.24
2019-06-10T01:24:52.749Z,86.94
2019-06-10T01:29:52.647Z,87.14
2019-06-10T01:34:52.581Z,89.28
2019-06-10T01:39:52.551Z,90.30
2019-06-10T01:44:52.468Z,89.59
2019-06-10T01:49:52.424Z,90.81
2019-06-10T01:54:52.414Z,91.31
2019-06-10T01:59:52.279Z,90.81
2019-06-10T02:04:52.252Z,90.14
2019-06-10T02:09:52.191Z,90.44
2019-06-10T02:14:52.149Z,90.64
2019-06-10T02:19:52.066Z,89.73
2019-06-10T02:24:52.023Z,90.28
2019-06-10T02:29:51.985Z,90.69
2019-06-10T02:35:03.652Z,91.20
2019-06-10T02:39:54.190Z,91.44
2019-06-10T02:44:54.068Z,92.00
2019-06-10T02:49:59.058Z,92.20
2019-06-10T02:54:53.664Z,91.69
2019-06-10T14:30:19.703Z,74.79
2019-06-10T14:35:19.702Z,74.46
2019-06-10T14:40:20.814Z,76.04
2019-06-10T14:45:19.673Z,80.86
2019-06-10T14:50:19.620Z,79.08
2019-06-10T14:55:19.503Z,78.00
2019-06-10T15:00:19.586Z,78.29
2019-06-10T15:05:19.781Z,75.72
2019-06-10T15:10:20.202Z,73.65
2019-06-10T15:15:21.045Z,74.25
2019-06-10T15:20:19.947Z,73.02
2019-06-10T15:25:27.519Z,72.08
2019-06-10T15:30:26.170Z,73.05
2019-06-10T15:35:23.752Z,76.69
2019-06-10T15:40:19.791Z,79.97
2019-06-10T15:45:19.937Z,77.64
2019-06-10T15:50:20.396Z,80.48
2019-06-10T15:55:40.700Z,79.85
2019-06-10T16:00:22.278Z,80.68
2019-06-10T16:05:21.340Z,83.45
2019-06-10T16:10:21.295Z,84.51
2019-06-10T16:15:19.476Z,83.67
2019-06-10T16:20:19.406Z,82.63
2019-06-10T16:25:19.909Z,82.87
2019-06-10T16:30:20.164Z,84.01
2019-06-10T16:35:20.829Z,87.79
2019-06-10T16:40:23.842Z,91.24
2019-06-10T16:45:27.680Z,93.14
2019-06-10T16:50:24.422Z,93.44
2019-06-10T16:55:22.666Z,94.00
2019-06-10T17:00:23.084Z,93.30
2019-06-10T17:05:25.200Z,92.65
2019-06-10T17:10:23.940Z,92.45
2019-06-10T17:15:21.586Z,92.55
2019-06-10T17:20:23.605Z,93.15
2019-06-10T17:25:23.561Z,94.05
2019-06-10T17:30:23.376Z,96.01
2019-06-10T17:35:21.986Z,96.31
2019-06-10T17:40:23.413Z,95.96
2019-06-10T17:45:24.521Z,96.56
2019-06-10T17:50:22.313Z,96.47
2019-06-10T17:55:24.887Z,96.77
2019-06-10T18:00:23.436Z,96.92
2019-06-10T18:05:22.483Z,97.02
2019-06-10T18:10:22.784Z,97.56
2019-06-10T18:15:22.205Z,98.17
2019-06-10T18:20:22.605Z,98.62
2019-06-10T18:25:22.967Z,98.67
2019-06-10T18:30:22.197Z,99.42
2019-06-10T18:35:22.397Z,99.42
2019-06-10T18:40:20.940Z,99.37
2019-06-10T18:45:22.391Z,98.20
2019-06-10T18:50:22.119Z,97.03
2019-06-10T18:55:22.609Z,97.03
2019-06-10T19:00:22.986Z,97.24
2019-06-10T19:05:22.393Z,96.78
2019-06-10T19:10:22.910Z,97.85
2019-06-10T19:15:20.695Z,97.14
2019-06-10T19:20:20.629Z,97.79
2019-06-10T19:25:20.682Z,97.49
2019-06-10T19:30:23.118Z,97.38
2019-06-10T19:35:22.364Z,98.50
2019-06-10T19:40:22.767Z,98.09
2019-06-10T19:45:22.751Z,97.33
2019-06-10T19:50:20.260Z,97.53
2019-06-10T19:55:20.214Z,97.58
2019-06-10T20:00:22.046Z,98.54
2019-06-10T20:05:20.161Z,98.95
2019-06-10T20:10:20.207Z,99.25
2019-06-10T20:15:22.414Z,99.76
2019-06-10T20:20:22.646Z,99.66
2019-06-10T20:25:29.591Z,99.66
2019-06-10T20:30:35.351Z,99.81
2019-06-10T20:35:19.901Z,98.95
2019-06-10T20:40:19.854Z,98.85
2019-06-10T20:45:22.929Z,97.94
2019-06-10T20:50:19.686Z,97.43
2019-06-10T20:55:19.764Z,97.78
2019-06-10T21:00:23.023Z,98.69
2019-06-10T21:05:22.364Z,98.79
2019-06-10T21:10:19.449Z,98.79
2019-06-10T21:15:22.765Z,98.39
2019-06-10T21:20:22.488Z,98.49
2019-06-10T21:25:19.336Z,98.63
2019-06-10T21:30:34.059Z,98.13
2019-06-10T21:35:20.313Z,98.23
2019-06-10T21:40:19.268Z,99.24
2019-06-10T21:45:19.304Z,98.54
2019-06-10T21:50:19.145Z,98.84
2019-06-10T21:55:19.103Z,98.63
2019-06-10T22:00:18.994Z,99.14
2019-06-10T22:05:18.923Z,98.33
2019-06-10T22:10:18.886Z,97.62
2019-06-10T22:15:18.842Z,97.52
2019-06-10T22:20:18.896Z,97.62
2019-06-10T22:25:18.765Z,97.92
2019-06-10T22:30:18.694Z,98.23
2019-06-10T22:35:18.710Z,98.43
2019-06-10T22:40:18.653Z,98.63
2019-06-10T22:45:19.098Z,98.94
2019-06-10T22:50:18.653Z,98.54
2019-06-10T22:55:21.840Z,98.63
2019-06-10T23:00:22.280Z,98.54
2019-06-10T23:05:18.484Z,98.94
2019-06-10T23:10:18.371Z,98.84
2019-06-10T23:15:18.332Z,98.63
2019-06-10T23:20:18.277Z,98.84
2019-06-10T23:25:18.206Z,98.63
2019-06-10T23:30:18.237Z,99.24
2019-06-10T23:35:18.108Z,98.54
2019-06-10T23:40:18.061Z,99.04
2019-06-10T23:45:18.007Z,99.04
2019-06-10T23:50:17.951Z,99.55
2019-06-10T23:55:18.121Z,98.74
